sensor_id;sensor_type;location;lat;lon;timestamp;pressure;altitude;pressure_sealevel;temperature;humidity
54270;BME280;40181;51.560;13.000;2023-07-13T00:01:34;100355.94;;;24.28;40.34
54270;BME280;40181;51.560;13.000;2023-07-13T00:04:04;100364.88;;;24.10;40.92
54270;BME280;40181;51.560;13.000;2023-07-13T00:06:33;100356.16;;;24.03;40.14
54270;BME280;40181;51.560;13.000;2023-07-13T00:09:03;100363.78;;;23.93;41.88
54270;BME280;40181;51.560;13.000;2023-07-13T00:11:34;100367.69;;;23.86;41.91
54270;BME280;40181;51.560;13.000;2023-07-13T00:14:03;100361.03;;;23.55;42.00
54270;BME280;40181;51.560;13.000;2023-07-13T00:16:33;100356.91;;;23.67;42.16
54270;BME280;40181;51.560;13.000;2023-07-13T00:19:03;100357.19;;;23.60;42.84
54270;BME280;40181;51.560;13.000;2023-07-13T00:21:32;100354.22;;;23.67;42.58
54270;BME280;40181;51.560;13.000;2023-07-13T00:24:02;100364.28;;;23.41;43.77
54270;BME280;40181;51.560;13.000;2023-07-13T00:26:34;100370.22;;;23.27;44.40
54270;BME280;40181;51.560;13.000;2023-07-13T00:29:04;100373.91;;;23.24;44.20
54270;BME280;40181;51.560;13.000;2023-07-13T00:31:33;100374.13;;;23.19;44.22
54270;BME280;40181;51.560;13.000;2023-07-13T00:34:03;100371.16;;;23.26;44.49
54270;BME280;40181;51.560;13.000;2023-07-13T00:36:32;100380.44;;;22.96;46.12
54270;BME280;40181;51.560;13.000;2023-07-13T00:39:01;100379.97;;;23.07;45.52
54270;BME280;40181;51.560;13.000;2023-07-13T00:41:31;100388.16;;;23.04;45.99
54270;BME280;40181;51.560;13.000;2023-07-13T00:44:03;100390.88;;;22.80;46.89
54270;BME280;40181;51.560;13.000;2023-07-13T00:46:33;100397.97;;;22.81;46.93
54270;BME280;40181;51.560;13.000;2023-07-13T00:49:05;100405.19;;;22.57;47.90
54270;BME280;40181;51.560;13.000;2023-07-13T00:51:39;100412.03;;;22.88;47.24
54270;BME280;40181;51.560;13.000;2023-07-13T00:54:23;100407.50;;;22.88;47.22
54270;BME280;40181;51.560;13.000;2023-07-13T00:57:00;100426.44;;;22.84;47.65
54270;BME280;40181;51.560;13.000;2023-07-13T00:59:31;100409.44;;;22.85;47.27
54270;BME280;40181;51.560;13.000;2023-07-13T01:02:03;100414.19;;;23.00;47.23
54270;BME280;40181;51.560;13.000;2023-07-13T01:04:32;100413.88;;;22.86;48.03
54270;BME280;40181;51.560;13.000;2023-07-13T01:07:04;100415.78;;;22.82;47.49
54270;BME280;40181;51.560;13.000;2023-07-13T01:09:35;100417.28;;;22.89;47.09
54270;BME280;40181;51.560;13.000;2023-07-13T01:12:07;100418.72;;;22.76;47.55
54270;BME280;40181;51.560;13.000;2023-07-13T01:14:37;100415.78;;;22.60;48.32
54270;BME280;40181;51.560;13.000;2023-07-13T01:17:08;100424.50;;;22.65;48.36
54270;BME280;40181;51.560;13.000;2023-07-13T01:19:40;100405.63;;;22.68;47.88
54270;BME280;40181;51.560;13.000;2023-07-13T01:22:16;100409.25;;;22.43;48.93
54270;BME280;40181;51.560;13.000;2023-07-13T01:24:51;100403.19;;;22.38;48.66
54270;BME280;40181;51.560;13.000;2023-07-13T01:27:23;100403.34;;;22.35;49.08
54270;BME280;40181;51.560;13.000;2023-07-13T01:29:53;100401.34;;;22.40;48.84
54270;BME280;40181;51.560;13.000;2023-07-13T01:32:27;100403.56;;;22.29;49.22
54270;BME280;40181;51.560;13.000;2023-07-13T01:34:58;100411.47;;;22.56;48.38
54270;BME280;40181;51.560;13.000;2023-07-13T01:37:29;100408.19;;;22.23;49.00
54270;BME280;40181;51.560;13.000;2023-07-13T01:40:01;100418.09;;;21.72;50.70
54270;BME280;40181;51.560;13.000;2023-07-13T01:42:32;100417.41;;;21.91;50.84
54270;BME280;40181;51.560;13.000;2023-07-13T01:45:01;100414.56;;;21.95;50.41
54270;BME280;40181;51.560;13.000;2023-07-13T01:47:30;100411.63;;;21.78;51.51
54270;BME280;40181;51.560;13.000;2023-07-13T01:49:59;100405.69;;;21.69;51.84
54270;BME280;40181;51.560;13.000;2023-07-13T01:52:31;100416.44;;;21.93;50.99
54270;BME280;40181;51.560;13.000;2023-07-13T01:55:00;100415.16;;;21.80;51.41
54270;BME280;40181;51.560;13.000;2023-07-13T01:57:29;100416.03;;;21.53;52.33
54270;BME280;40181;51.560;13.000;2023-07-13T01:59:58;100411.03;;;21.69;52.17
54270;BME280;40181;51.560;13.000;2023-07-13T02:02:29;100396.59;;;21.75;51.82
54270;BME280;40181;51.560;13.000;2023-07-13T02:04:59;100406.25;;;21.79;52.36
54270;BME280;40181;51.560;13.000;2023-07-13T02:07:30;100405.75;;;21.93;50.86
54270;BME280;40181;51.560;13.000;2023-07-13T02:09:59;100407.31;;;21.99;51.08
54270;BME280;40181;51.560;13.000;2023-07-13T02:12:40;100407.50;;;21.69;51.42
54270;BME280;40181;51.560;13.000;2023-07-13T02:15:10;100407.94;;;21.82;51.63
54270;BME280;40181;51.560;13.000;2023-07-13T02:17:39;100403.63;;;21.78;52.07
54270;BME280;40181;51.560;13.000;2023-07-13T02:20:08;100406.13;;;21.82;51.94
54270;BME280;40181;51.560;13.000;2023-07-13T02:22:40;100413.91;;;21.63;51.94
54270;BME280;40181;51.560;13.000;2023-07-13T02:25:09;100414.25;;;21.54;52.16
54270;BME280;40181;51.560;13.000;2023-07-13T02:27:39;100413.66;;;21.71;51.56
54270;BME280;40181;51.560;13.000;2023-07-13T02:30:12;100421.09;;;21.88;51.71
54270;BME280;40181;51.560;13.000;2023-07-13T02:32:41;100425.13;;;21.48;52.32
54270;BME280;40181;51.560;13.000;2023-07-13T02:35:11;100432.56;;;21.38;52.66
54270;BME280;40181;51.560;13.000;2023-07-13T02:37:43;100415.88;;;21.58;52.09
54270;BME280;40181;51.560;13.000;2023-07-13T02:40:12;100412.41;;;21.81;51.58
54270;BME280;40181;51.560;13.000;2023-07-13T02:42:41;100417.00;;;21.78;51.36
54270;BME280;40181;51.560;13.000;2023-07-13T02:45:10;100418.66;;;21.55;52.21
54270;BME280;40181;51.560;13.000;2023-07-13T02:47:40;100419.91;;;21.72;51.72
54270;BME280;40181;51.560;13.000;2023-07-13T02:50:10;100423.97;;;21.56;51.75
54270;BME280;40181;51.560;13.000;2023-07-13T02:52:39;100428.72;;;21.74;51.64
54270;BME280;40181;51.560;13.000;2023-07-13T02:55:10;100425.53;;;21.62;52.03
54270;BME280;40181;51.560;13.000;2023-07-13T02:57:39;100419.78;;;21.75;51.13
54270;BME280;40181;51.560;13.000;2023-07-13T03:00:10;100432.81;;;21.84;51.22
54270;BME280;40181;51.560;13.000;2023-07-13T03:02:41;100427.03;;;21.44;52.17
54270;BME280;40181;51.560;13.000;2023-07-13T03:05:11;100422.88;;;21.62;51.28
54270;BME280;40181;51.560;13.000;2023-07-13T03:07:40;100427.69;;;21.78;51.07
54270;BME280;40181;51.560;13.000;2023-07-13T03:10:12;100420.84;;;21.44;51.82
54270;BME280;40181;51.560;13.000;2023-07-13T03:12:41;100425.91;;;21.51;51.91
54270;BME280;40181;51.560;13.000;2023-07-13T03:15:10;100437.22;;;21.33;52.26
54270;BME280;40181;51.560;13.000;2023-07-13T03:17:40;100434.84;;;21.23;52.53
54270;BME280;40181;51.560;13.000;2023-07-13T03:20:10;100431.13;;;21.00;52.93
54270;BME280;40181;51.560;13.000;2023-07-13T03:22:39;100433.00;;;21.25;52.10
54270;BME280;40181;51.560;13.000;2023-07-13T03:25:08;100435.19;;;21.66;51.43
54270;BME280;40181;51.560;13.000;2023-07-13T03:27:40;100442.66;;;21.56;51.82
54270;BME280;40181;51.560;13.000;2023-07-13T03:30:10;100448.72;;;21.35;52.12
54270;BME280;40181;51.560;13.000;2023-07-13T03:32:39;100451.38;;;21.35;52.78
54270;BME280;40181;51.560;13.000;2023-07-13T03:35:09;100459.56;;;21.30;52.69
54270;BME280;40181;51.560;13.000;2023-07-13T03:37:38;100457.75;;;21.04;53.67
54270;BME280;40181;51.560;13.000;2023-07-13T03:40:08;100469.81;;;21.15;53.42
54270;BME280;40181;51.560;13.000;2023-07-13T03:42:41;100464.56;;;21.12;53.39
54270;BME280;40181;51.560;13.000;2023-07-13T03:45:10;100466.25;;;21.17;52.95
54270;BME280;40181;51.560;13.000;2023-07-13T03:47:39;100470.69;;;21.16;53.06
54270;BME280;40181;51.560;13.000;2023-07-13T03:50:08;100461.19;;;21.07;53.22
54270;BME280;40181;51.560;13.000;2023-07-13T03:52:37;100465.13;;;20.95;52.94
54270;BME280;40181;51.560;13.000;2023-07-13T03:55:07;100468.34;;;21.05;53.21
54270;BME280;40181;51.560;13.000;2023-07-13T03:57:39;100476.34;;;21.07;52.79
54270;BME280;40181;51.560;13.000;2023-07-13T04:00:09;100477.78;;;21.17;52.94
54270;BME280;40181;51.560;13.000;2023-07-13T04:02:39;100477.94;;;21.12;52.85
54270;BME280;40181;51.560;13.000;2023-07-13T04:05:08;100484.72;;;21.23;53.31
54270;BME280;40181;51.560;13.000;2023-07-13T04:07:37;100481.56;;;21.10;53.37
54270;BME280;40181;51.560;13.000;2023-07-13T04:10:07;100491.09;;;20.90;53.51
54270;BME280;40181;51.560;13.000;2023-07-13T04:12:39;100482.63;;;21.04;53.65
54270;BME280;40181;51.560;13.000;2023-07-13T04:15:09;100484.59;;;20.99;53.66
54270;BME280;40181;51.560;13.000;2023-07-13T04:17:38;100495.91;;;21.07;53.50
54270;BME280;40181;51.560;13.000;2023-07-13T04:20:07;100508.13;;;20.86;54.48
54270;BME280;40181;51.560;13.000;2023-07-13T04:22:37;100494.00;;;20.82;54.76
54270;BME280;40181;51.560;13.000;2023-07-13T04:25:07;100492.81;;;20.91;54.14
54270;BME280;40181;51.560;13.000;2023-07-13T04:27:39;100485.19;;;20.79;54.62
54270;BME280;40181;51.560;13.000;2023-07-13T04:30:08;100489.59;;;20.80;54.91
54270;BME280;40181;51.560;13.000;2023-07-13T04:32:38;100475.75;;;20.97;54.47
54270;BME280;40181;51.560;13.000;2023-07-13T04:35:08;100486.28;;;20.71;55.22
54270;BME280;40181;51.560;13.000;2023-07-13T04:37:38;100487.41;;;20.94;54.72
54270;BME280;40181;51.560;13.000;2023-07-13T04:40:08;100497.22;;;20.94;54.62
54270;BME280;40181;51.560;13.000;2023-07-13T04:42:40;100489.69;;;21.07;54.26
54270;BME280;40181;51.560;13.000;2023-07-13T04:45:10;100485.38;;;21.03;54.37
54270;BME280;40181;51.560;13.000;2023-07-13T04:47:40;100499.84;;;20.95;54.85
54270;BME280;40181;51.560;13.000;2023-07-13T04:50:09;100492.19;;;21.13;55.05
54270;BME280;40181;51.560;13.000;2023-07-13T04:52:40;100483.56;;;21.03;54.27
54270;BME280;40181;51.560;13.000;2023-07-13T04:55:10;100486.19;;;21.05;54.63
54270;BME280;40181;51.560;13.000;2023-07-13T04:57:42;100489.88;;;21.00;54.67
54270;BME280;40181;51.560;13.000;2023-07-13T05:00:12;100491.88;;;21.22;54.32
54270;BME280;40181;51.560;13.000;2023-07-13T05:02:44;100493.31;;;21.04;54.83
54270;BME280;40181;51.560;13.000;2023-07-13T05:05:13;100493.72;;;20.92;55.10
54270;BME280;40181;51.560;13.000;2023-07-13T05:07:43;100491.47;;;21.06;54.71
54270;BME280;40181;51.560;13.000;2023-07-13T05:10:12;100486.84;;;21.13;54.61
54270;BME280;40181;51.560;13.000;2023-07-13T05:12:43;100493.00;;;21.15;54.64
54270;BME280;40181;51.560;13.000;2023-07-13T05:15:12;100492.97;;;21.17;55.09
54270;BME280;40181;51.560;13.000;2023-07-13T05:17:46;100486.91;;;21.10;55.20
54270;BME280;40181;51.560;13.000;2023-07-13T05:20:16;100483.09;;;21.19;55.11
54270;BME280;40181;51.560;13.000;2023-07-13T05:22:45;100491.78;;;21.25;55.15
54270;BME280;40181;51.560;13.000;2023-07-13T05:25:15;100492.88;;;21.18;55.46
54270;BME280;40181;51.560;13.000;2023-07-13T05:27:47;100489.25;;;21.21;56.02
54270;BME280;40181;51.560;13.000;2023-07-13T05:30:17;100495.25;;;21.27;55.05
54270;BME280;40181;51.560;13.000;2023-07-13T05:32:46;100498.22;;;21.18;54.95
54270;BME280;40181;51.560;13.000;2023-07-13T05:35:15;100494.34;;;21.28;54.51
54270;BME280;40181;51.560;13.000;2023-07-13T05:37:44;100493.78;;;21.19;54.57
54270;BME280;40181;51.560;13.000;2023-07-13T05:40:14;100493.84;;;21.44;54.51
54270;BME280;40181;51.560;13.000;2023-07-13T05:42:43;100504.94;;;21.59;54.91
54270;BME280;40181;51.560;13.000;2023-07-13T05:45:15;100501.47;;;21.56;53.83
54270;BME280;40181;51.560;13.000;2023-07-13T05:47:44;100505.50;;;21.41;54.09
54270;BME280;40181;51.560;13.000;2023-07-13T05:50:13;100507.34;;;21.68;53.66
54270;BME280;40181;51.560;13.000;2023-07-13T05:52:43;100508.63;;;21.27;54.05
54270;BME280;40181;51.560;13.000;2023-07-13T05:55:12;100499.84;;;21.51;53.51
54270;BME280;40181;51.560;13.000;2023-07-13T05:57:41;100502.50;;;21.51;53.94
54270;BME280;40181;51.560;13.000;2023-07-13T06:00:15;100503.25;;;21.56;53.16
54270;BME280;40181;51.560;13.000;2023-07-13T06:02:44;100494.47;;;21.79;53.20
54270;BME280;40181;51.560;13.000;2023-07-13T06:05:13;100512.59;;;21.71;52.56
54270;BME280;40181;51.560;13.000;2023-07-13T06:07:42;100508.31;;;21.64;51.73
54270;BME280;40181;51.560;13.000;2023-07-13T06:10:11;100498.56;;;21.90;51.97
54270;BME280;40181;51.560;13.000;2023-07-13T06:12:40;100505.78;;;21.88;52.38
54270;BME280;40181;51.560;13.000;2023-07-13T06:15:13;100498.50;;;21.93;52.99
54270;BME280;40181;51.560;13.000;2023-07-13T06:17:42;100498.16;;;22.02;53.05
54270;BME280;40181;51.560;13.000;2023-07-13T06:20:12;100501.28;;;22.15;52.88
54270;BME280;40181;51.560;13.000;2023-07-13T06:22:41;100508.75;;;22.05;52.30
54270;BME280;40181;51.560;13.000;2023-07-13T06:25:10;100510.00;;;22.20;51.67
54270;BME280;40181;51.560;13.000;2023-07-13T06:27:39;100512.50;;;22.00;51.96
54270;BME280;40181;51.560;13.000;2023-07-13T06:30:10;100511.97;;;22.15;51.51
54270;BME280;40181;51.560;13.000;2023-07-13T06:32:43;100507.03;;;22.28;51.38
54270;BME280;40181;51.560;13.000;2023-07-13T06:35:12;100504.28;;;21.79;53.13
54270;BME280;40181;51.560;13.000;2023-07-13T06:37:41;100519.06;;;22.16;51.85
54270;BME280;40181;51.560;13.000;2023-07-13T06:40:10;100515.28;;;22.22;50.94
54270;BME280;40181;51.560;13.000;2023-07-13T06:42:40;100520.16;;;22.36;51.24
54270;BME280;40181;51.560;13.000;2023-07-13T06:45:09;100521.41;;;22.25;51.14
54270;BME280;40181;51.560;13.000;2023-07-13T06:47:41;100520.97;;;22.38;50.99
54270;BME280;40181;51.560;13.000;2023-07-13T06:50:10;100523.75;;;22.60;50.34
54270;BME280;40181;51.560;13.000;2023-07-13T06:52:39;100510.06;;;22.68;51.16
54270;BME280;40181;51.560;13.000;2023-07-13T06:55:08;100511.66;;;22.48;50.61
54270;BME280;40181;51.560;13.000;2023-07-13T06:57:38;100519.78;;;22.71;50.88
54270;BME280;40181;51.560;13.000;2023-07-13T07:00:08;100523.41;;;22.70;51.69
54270;BME280;40181;51.560;13.000;2023-07-13T07:02:38;100524.09;;;22.51;50.86
54270;BME280;40181;51.560;13.000;2023-07-13T07:05:10;100527.31;;;22.61;50.14
54270;BME280;40181;51.560;13.000;2023-07-13T07:07:39;100525.72;;;22.79;49.88
54270;BME280;40181;51.560;13.000;2023-07-13T07:10:08;100534.91;;;22.96;50.36
54270;BME280;40181;51.560;13.000;2023-07-13T07:12:37;100527.50;;;23.02;49.63
54270;BME280;40181;51.560;13.000;2023-07-13T07:15:07;100534.81;;;23.21;49.31
54270;BME280;40181;51.560;13.000;2023-07-13T07:17:36;100534.78;;;22.99;48.73
54270;BME280;40181;51.560;13.000;2023-07-13T07:20:10;100530.63;;;23.14;49.10
54270;BME280;40181;51.560;13.000;2023-07-13T07:22:39;100531.91;;;23.03;49.02
54270;BME280;40181;51.560;13.000;2023-07-13T07:25:09;100548.19;;;22.99;46.58
54270;BME280;40181;51.560;13.000;2023-07-13T07:27:38;100540.22;;;23.43;45.76
54270;BME280;40181;51.560;13.000;2023-07-13T07:30:08;100542.47;;;23.08;45.45
54270;BME280;40181;51.560;13.000;2023-07-13T07:32:38;100544.06;;;23.36;45.12
54270;BME280;40181;51.560;13.000;2023-07-13T07:35:10;100556.00;;;23.27;43.25
54270;BME280;40181;51.560;13.000;2023-07-13T07:37:39;100534.59;;;23.03;44.43
54270;BME280;40181;51.560;13.000;2023-07-13T07:40:08;100554.00;;;23.10;45.59
54270;BME280;40181;51.560;13.000;2023-07-13T07:42:38;100540.09;;;23.69;44.76
54270;BME280;40181;51.560;13.000;2023-07-13T07:45:07;100550.44;;;23.56;44.98
54270;BME280;40181;51.560;13.000;2023-07-13T07:47:38;100551.59;;;23.26;44.44
54270;BME280;40181;51.560;13.000;2023-07-13T07:50:11;100549.81;;;23.49;45.27
54270;BME280;40181;51.560;13.000;2023-07-13T07:52:40;100550.13;;;23.63;45.40
54270;BME280;40181;51.560;13.000;2023-07-13T07:55:10;100540.38;;;23.61;44.79
54270;BME280;40181;51.560;13.000;2023-07-13T07:57:39;100552.75;;;23.43;45.21
54270;BME280;40181;51.560;13.000;2023-07-13T08:00:12;100553.97;;;23.56;45.06
54270;BME280;40181;51.560;13.000;2023-07-13T08:02:42;100550.19;;;23.40;44.73
54270;BME280;40181;51.560;13.000;2023-07-13T08:05:14;100547.56;;;23.38;44.37
54270;BME280;40181;51.560;13.000;2023-07-13T08:07:43;100557.19;;;23.44;44.90
54270;BME280;40181;51.560;13.000;2023-07-13T08:10:12;100552.09;;;23.36;44.22
54270;BME280;40181;51.560;13.000;2023-07-13T08:12:41;100555.06;;;23.52;43.94
54270;BME280;40181;51.560;13.000;2023-07-13T08:15:15;100559.44;;;23.32;43.76
54270;BME280;40181;51.560;13.000;2023-07-13T08:17:46;100558.09;;;23.87;42.98
54270;BME280;40181;51.560;13.000;2023-07-13T08:20:18;100560.22;;;23.57;43.02
54270;BME280;40181;51.560;13.000;2023-07-13T08:22:47;100566.81;;;23.70;42.09
54270;BME280;40181;51.560;13.000;2023-07-13T08:25:16;100559.31;;;23.79;41.78
54270;BME280;40181;51.560;13.000;2023-07-13T08:27:45;100562.69;;;24.06;41.46
54270;BME280;40181;51.560;13.000;2023-07-13T08:30:15;100563.41;;;24.51;41.54
54270;BME280;40181;51.560;13.000;2023-07-13T08:32:44;100560.06;;;24.46;41.02
54270;BME280;40181;51.560;13.000;2023-07-13T08:35:14;100559.50;;;24.17;40.43
54270;BME280;40181;51.560;13.000;2023-07-13T08:37:46;100558.50;;;24.61;43.07
54270;BME280;40181;51.560;13.000;2023-07-13T08:40:16;100563.78;;;24.83;40.26
54270;BME280;40181;51.560;13.000;2023-07-13T08:42:50;100556.81;;;25.18;39.97
54270;BME280;40181;51.560;13.000;2023-07-13T08:45:24;100563.81;;;25.39;39.70
54270;BME280;40181;51.560;13.000;2023-07-13T08:48:02;100563.53;;;23.63;41.57
54270;BME280;40181;51.560;13.000;2023-07-13T08:50:43;100569.53;;;24.74;40.34
54270;BME280;40181;51.560;13.000;2023-07-13T08:53:21;100563.97;;;24.58;39.87
54270;BME280;40181;51.560;13.000;2023-07-13T08:55:57;100571.38;;;24.53;40.46
54270;BME280;40181;51.560;13.000;2023-07-13T08:58:28;100575.72;;;24.15;40.75
54270;BME280;40181;51.560;13.000;2023-07-13T09:01:05;100567.84;;;24.11;40.43
54270;BME280;40181;51.560;13.000;2023-07-13T09:03:46;100566.13;;;23.87;40.81
54270;BME280;40181;51.560;13.000;2023-07-13T09:06:30;100576.66;;;23.92;41.86
54270;BME280;40181;51.560;13.000;2023-07-13T09:09:08;100565.22;;;24.51;41.75
54270;BME280;40181;51.560;13.000;2023-07-13T09:11:47;100563.81;;;24.21;41.22
54270;BME280;40181;51.560;13.000;2023-07-13T09:14:34;100570.13;;;23.77;42.08
54270;BME280;40181;51.560;13.000;2023-07-13T09:17:17;100571.41;;;24.11;41.39
54270;BME280;40181;51.560;13.000;2023-07-13T09:19:54;100564.81;;;24.60;40.91
54270;BME280;40181;51.560;13.000;2023-07-13T09:22:33;100548.38;;;24.47;41.08
54270;BME280;40181;51.560;13.000;2023-07-13T09:25:06;100555.44;;;23.65;42.37
54270;BME280;40181;51.560;13.000;2023-07-13T09:27:47;100567.63;;;24.36;40.81
54270;BME280;40181;51.560;13.000;2023-07-13T09:30:27;100563.63;;;24.26;40.12
54270;BME280;40181;51.560;13.000;2023-07-13T09:33:01;100580.13;;;24.37;40.77
54270;BME280;40181;51.560;13.000;2023-07-13T09:35:30;100571.53;;;24.50;40.97
54270;BME280;40181;51.560;13.000;2023-07-13T09:38:11;100573.81;;;24.17;40.90
54270;BME280;40181;51.560;13.000;2023-07-13T09:40:56;100570.91;;;24.84;40.60
54270;BME280;40181;51.560;13.000;2023-07-13T09:43:36;100571.34;;;24.94;39.41
54270;BME280;40181;51.560;13.000;2023-07-13T09:46:20;100570.66;;;25.27;38.82
54270;BME280;40181;51.560;13.000;2023-07-13T09:48:49;100561.53;;;25.32;38.23
54270;BME280;40181;51.560;13.000;2023-07-13T09:51:18;100558.34;;;25.60;40.22
54270;BME280;40181;51.560;13.000;2023-07-13T09:53:50;100559.25;;;25.78;38.68
54270;BME280;40181;51.560;13.000;2023-07-13T09:56:20;100574.34;;;25.44;38.69
54270;BME280;40181;51.560;13.000;2023-07-13T09:58:51;100570.25;;;25.18;41.26
54270;BME280;40181;51.560;13.000;2023-07-13T10:01:32;100577.13;;;24.85;39.70
54270;BME280;40181;51.560;13.000;2023-07-13T10:04:11;100572.78;;;24.82;40.49
54270;BME280;40181;51.560;13.000;2023-07-13T10:06:41;100573.53;;;24.86;40.24
54270;BME280;40181;51.560;13.000;2023-07-13T10:09:15;100582.50;;;24.64;40.35
54270;BME280;40181;51.560;13.000;2023-07-13T10:11:45;100575.16;;;24.89;40.20
54270;BME280;40181;51.560;13.000;2023-07-13T10:14:16;100592.41;;;24.64;40.85
54270;BME280;40181;51.560;13.000;2023-07-13T10:16:50;100571.91;;;25.01;40.30
54270;BME280;40181;51.560;13.000;2023-07-13T10:19:26;100573.91;;;25.34;40.65
54270;BME280;40181;51.560;13.000;2023-07-13T10:22:00;100578.09;;;25.22;39.54
54270;BME280;40181;51.560;13.000;2023-07-13T10:24:36;100583.19;;;24.49;39.97
54270;BME280;40181;51.560;13.000;2023-07-13T10:27:12;100584.25;;;24.65;39.35
54270;BME280;40181;51.560;13.000;2023-07-13T10:29:47;100582.13;;;24.53;39.44
54270;BME280;40181;51.560;13.000;2023-07-13T10:32:19;100579.19;;;24.59;38.70
54270;BME280;40181;51.560;13.000;2023-07-13T10:34:51;100575.66;;;24.78;39.02
54270;BME280;40181;51.560;13.000;2023-07-13T10:37:24;100589.28;;;24.73;38.91
54270;BME280;40181;51.560;13.000;2023-07-13T10:39:59;100590.94;;;24.76;39.26
54270;BME280;40181;51.560;13.000;2023-07-13T10:42:38;100580.34;;;25.12;39.90
54270;BME280;40181;51.560;13.000;2023-07-13T10:45:13;100590.44;;;25.46;38.04
54270;BME280;40181;51.560;13.000;2023-07-13T10:47:45;100581.59;;;25.98;38.30
54270;BME280;40181;51.560;13.000;2023-07-13T10:50:19;100572.00;;;25.75;37.73
54270;BME280;40181;51.560;13.000;2023-07-13T10:52:51;100576.81;;;25.68;37.10
54270;BME280;40181;51.560;13.000;2023-07-13T10:55:37;100569.34;;;25.55;36.61
54270;BME280;40181;51.560;13.000;2023-07-13T10:58:13;100574.75;;;25.73;36.67
54270;BME280;40181;51.560;13.000;2023-07-13T11:00:49;100585.50;;;25.17;36.97
54270;BME280;40181;51.560;13.000;2023-07-13T11:03:22;100587.97;;;25.22;37.51
54270;BME280;40181;51.560;13.000;2023-07-13T11:06:06;100576.03;;;25.47;36.14
54270;BME280;40181;51.560;13.000;2023-07-13T11:08:39;100576.91;;;25.66;35.91
54270;BME280;40181;51.560;13.000;2023-07-13T11:11:37;100568.03;;;25.45;36.08
54270;BME280;40181;51.560;13.000;2023-07-13T11:14:29;100580.84;;;25.40;36.41
54270;BME280;40181;51.560;13.000;2023-07-13T11:17:23;100574.75;;;25.73;35.42
54270;BME280;40181;51.560;13.000;2023-07-13T11:20:21;100565.41;;;25.44;34.49
54270;BME280;40181;51.560;13.000;2023-07-13T11:22:53;100564.31;;;25.67;34.17
54270;BME280;40181;51.560;13.000;2023-07-13T11:25:50;100567.66;;;25.90;32.94
54270;BME280;40181;51.560;13.000;2023-07-13T11:28:27;100564.66;;;26.14;32.02
54270;BME280;40181;51.560;13.000;2023-07-13T11:31:02;100549.97;;;26.21;32.53
54270;BME280;40181;51.560;13.000;2023-07-13T11:33:58;100556.97;;;25.88;32.54
54270;BME280;40181;51.560;13.000;2023-07-13T11:36:32;100554.13;;;26.09;33.38
54270;BME280;40181;51.560;13.000;2023-07-13T11:39:16;100553.25;;;26.44;31.59
54270;BME280;40181;51.560;13.000;2023-07-13T11:41:52;100556.81;;;26.44;30.69
54270;BME280;40181;51.560;13.000;2023-07-13T11:44:27;100550.59;;;26.60;31.27
54270;BME280;40181;51.560;13.000;2023-07-13T11:46:59;100537.81;;;27.13;31.07
54270;BME280;40181;51.560;13.000;2023-07-13T11:49:41;100553.66;;;27.36;30.76
54270;BME280;40181;51.560;13.000;2023-07-13T11:52:15;100544.63;;;27.20;30.83
54270;BME280;40181;51.560;13.000;2023-07-13T11:54:48;100543.56;;;27.39;32.32
54270;BME280;40181;51.560;13.000;2023-07-13T11:57:24;100545.13;;;27.11;32.68
54270;BME280;40181;51.560;13.000;2023-07-13T12:00:00;100549.28;;;27.49;30.66
54270;BME280;40181;51.560;13.000;2023-07-13T12:02:34;100544.75;;;27.50;33.30
54270;BME280;40181;51.560;13.000;2023-07-13T12:05:09;100540.50;;;26.63;30.64
54270;BME280;40181;51.560;13.000;2023-07-13T12:07:40;100538.41;;;27.18;30.52
54270;BME280;40181;51.560;13.000;2023-07-13T12:10:19;100552.81;;;26.51;31.56
54270;BME280;40181;51.560;13.000;2023-07-13T12:12:53;100540.19;;;26.36;31.82
54270;BME280;40181;51.560;13.000;2023-07-13T12:15:37;100537.31;;;26.73;32.24
54270;BME280;40181;51.560;13.000;2023-07-13T12:18:12;100540.63;;;26.78;32.16
54270;BME280;40181;51.560;13.000;2023-07-13T12:20:44;100543.41;;;26.76;32.29
54270;BME280;40181;51.560;13.000;2023-07-13T12:23:21;100536.72;;;26.84;31.27
54270;BME280;40181;51.560;13.000;2023-07-13T12:25:52;100546.81;;;26.80;31.52
54270;BME280;40181;51.560;13.000;2023-07-13T12:28:28;100545.00;;;26.81;31.73
54270;BME280;40181;51.560;13.000;2023-07-13T12:31:22;100541.66;;;26.59;31.60
54270;BME280;40181;51.560;13.000;2023-07-13T12:33:58;100545.41;;;26.73;31.50
54270;BME280;40181;51.560;13.000;2023-07-13T12:36:33;100552.94;;;25.97;33.21
54270;BME280;40181;51.560;13.000;2023-07-13T12:39:12;100553.00;;;25.95;33.06
54270;BME280;40181;51.560;13.000;2023-07-13T12:41:44;100545.81;;;26.14;33.32
54270;BME280;40181;51.560;13.000;2023-07-13T12:44:15;100556.47;;;25.97;33.38
54270;BME280;40181;51.560;13.000;2023-07-13T12:47:03;100538.75;;;26.11;33.43
54270;BME280;40181;51.560;13.000;2023-07-13T12:49:40;100545.44;;;26.55;33.27
54270;BME280;40181;51.560;13.000;2023-07-13T12:52:14;100546.88;;;26.78;33.27
54270;BME280;40181;51.560;13.000;2023-07-13T12:54:53;100536.59;;;26.69;31.87
54270;BME280;40181;51.560;13.000;2023-07-13T12:57:24;100545.06;;;26.63;32.76
54270;BME280;40181;51.560;13.000;2023-07-13T12:59:54;100548.50;;;26.49;32.68
54270;BME280;40181;51.560;13.000;2023-07-13T13:02:30;100543.59;;;26.73;32.68
54270;BME280;40181;51.560;13.000;2023-07-13T13:05:02;100544.78;;;26.68;34.32
54270;BME280;40181;51.560;13.000;2023-07-13T13:07:32;100536.06;;;26.96;32.75